Time;durP1;ratioP1;P1;durP2;ratioP2;P2;SDS_P1;SDS_P2;PMS_P1;PMS_P2;Temp;Humidity;BMP_temperature;BMP_pressure;BME280_temperature;BME280_humidity;BME280_pressure;Samples;Min_cycle;Max_cycle;Signal;HPM_P1;HPM_P2
2021/03/24 00:00:29;;;;;;;25.30;15.70;;;6.70;99.90;;;;;;5051871;28;20223;-85
2021/03/24 00:02:57;;;;;;;21.90;14.50;;;6.80;99.90;;;;;;5050202;28;20203;-86
2021/03/24 00:05:28;;;;;;;18.15;12.60;;;7.00;99.90;;;;;;5049277;28;20234;-85
2021/03/24 00:07:54;;;;;;;21.23;12.93;;;7.00;99.90;;;;;;5050696;28;20203;-86
2021/03/24 00:10:23;;;;;;;17.38;11.85;;;7.00;99.90;;;;;;5048432;28;20227;-86
2021/03/24 00:12:53;;;;;;;20.73;13.23;;;6.90;99.90;;;;;;5044604;28;20210;-85
2021/03/24 00:15:21;;;;;;;18.80;12.85;;;7.00;99.90;;;;;;5043777;28;20535;-86
2021/03/24 00:17:51;;;;;;;19.48;12.07;;;7.00;99.90;;;;;;5044201;28;20212;-85
2021/03/24 00:20:20;;;;;;;17.05;12.32;;;7.00;99.90;;;;;;5043893;28;20235;-85
2021/03/24 00:22:46;;;;;;;24.10;13.10;;;7.00;99.90;;;;;;5044821;28;20215;-85
2021/03/24 00:25:14;;;;;;;16.85;12.00;;;7.00;99.90;;;;;;5044192;28;20216;-86
2021/03/24 00:27:41;;;;;;;16.33;11.68;;;7.00;99.90;;;;;;5044844;28;20681;-86
2021/03/24 00:30:08;;;;;;;22.17;13.02;;;7.10;99.90;;;;;;5043728;28;20226;-85
2021/03/24 00:32:35;;;;;;;17.50;12.50;;;7.00;99.90;;;;;;5044056;28;20214;-86
2021/03/24 00:35:02;;;;;;;22.00;13.65;;;7.10;99.90;;;;;;5044402;28;20249;-86
2021/03/24 00:37:28;;;;;;;22.52;13.98;;;7.10;99.90;;;;;;5044868;28;20203;-87
2021/03/24 00:39:54;;;;;;;23.20;13.18;;;7.00;99.90;;;;;;5043928;28;20223;-85
2021/03/24 00:42:20;;;;;;;16.95;12.25;;;6.90;99.90;;;;;;5042845;28;20211;-85
2021/03/24 00:44:46;;;;;;;16.17;12.38;;;7.00;99.90;;;;;;5043208;28;20228;-85
2021/03/24 00:47:13;;;;;;;18.92;12.52;;;7.00;99.90;;;;;;5043567;28;20203;-86
2021/03/24 00:49:39;;;;;;;17.63;13.10;;;7.00;99.90;;;;;;5043036;28;20616;-86
2021/03/24 00:52:07;;;;;;;21.58;12.27;;;7.00;99.90;;;;;;5029673;28;20235;-86
2021/03/24 00:54:33;;;;;;;19.63;13.32;;;7.00;99.90;;;;;;5041885;28;20205;-85
2021/03/24 00:56:59;;;;;;;17.10;11.20;;;7.00;99.90;;;;;;5043540;28;20654;-85
2021/03/24 00:59:26;;;;;;;16.73;10.88;;;6.90;99.90;;;;;;5042865;28;20725;-85
2021/03/24 01:01:53;;;;;;;18.05;12.57;;;7.20;99.90;;;;;;5044203;28;20204;-85
2021/03/24 01:04:21;;;;;;;15.93;12.43;;;6.90;99.90;;;;;;5042341;28;20247;-84
2021/03/24 01:06:47;;;;;;;15.73;10.55;;;6.90;99.90;;;;;;5042448;28;20204;-85
2021/03/24 01:09:14;;;;;;;17.40;11.77;;;6.80;99.90;;;;;;5040844;28;20235;-85
2021/03/24 01:11:41;;;;;;;18.20;11.57;;;6.80;99.90;;;;;;5040673;28;20215;-85
2021/03/24 01:14:08;;;;;;;14.93;11.23;;;6.80;99.90;;;;;;5041845;28;20257;-85
2021/03/24 01:16:35;;;;;;;16.58;11.60;;;6.80;99.90;;;;;;5041321;28;20230;-85
2021/03/24 01:19:01;;;;;;;18.63;11.70;;;7.10;99.90;;;;;;5041768;28;20203;-86
2021/03/24 01:21:28;;;;;;;14.00;9.35;;;6.90;99.90;;;;;;5046127;28;20227;-85
2021/03/24 01:23:54;;;;;;;14.18;9.98;;;7.00;99.90;;;;;;5044400;28;20208;-85
2021/03/24 01:26:21;;;;;;;17.05;10.93;;;6.90;99.90;;;;;;5040390;28;20227;-86
2021/03/24 01:28:57;;;;;;;19.88;10.75;;;6.80;99.90;;;;;;5040705;28;20204;-85
2021/03/24 01:31:24;;;;;;;19.25;12.45;;;6.70;99.90;;;;;;5041100;28;20230;-86
2021/03/24 01:33:50;;;;;;;16.48;11.60;;;6.80;99.90;;;;;;5040824;28;20227;-86
2021/03/24 01:36:17;;;;;;;16.10;10.73;;;6.80;99.90;;;;;;5041105;28;20265;-84
2021/03/24 01:38:43;;;;;;;17.25;11.07;;;6.80;99.90;;;;;;5041037;28;20203;-86
2021/03/24 01:41:09;;;;;;;18.05;10.38;;;6.80;99.90;;;;;;5041523;28;20227;-86
2021/03/24 01:43:37;;;;;;;14.63;9.25;;;6.80;99.90;;;;;;5043426;28;20570;-85
2021/03/24 01:46:36;;;;;;;14.70;10.45;;;6.80;99.90;;;;;;5049564;28;20227;-85
2021/03/24 01:49:07;;;;;;;15.35;9.73;;;6.90;99.90;;;;;;5055241;28;20191;-85
2021/03/24 01:51:36;;;;;;;17.40;12.02;;;6.80;99.90;;;;;;5056738;28;20192;-85
2021/03/24 01:54:05;;;;;;;14.30;11.82;;;6.90;99.90;;;;;;5048530;28;20214;-85
2021/03/24 01:56:31;;;;;;;15.70;10.68;;;6.80;99.90;;;;;;5043596;28;20299;-85
2021/03/24 01:58:58;;;;;;;20.38;11.20;;;6.20;99.90;;;;;;5041086;28;20214;-86
2021/03/24 02:01:25;;;;;;;17.10;10.27;;;6.60;99.90;;;;;;5041987;28;20203;-85
2021/03/24 02:03:52;;;;;;;18.17;12.18;;;6.70;99.90;;;;;;5041386;28;20214;-85
2021/03/24 02:06:26;;;;;;;18.67;12.05;;;6.80;99.90;;;;;;5041567;28;20258;-85
2021/03/24 02:09:01;;;;;;;13.25;10.40;;;6.40;99.90;;;;;;5040984;28;20279;-86
2021/03/24 02:11:34;;;;;;;19.83;12.20;;;6.80;99.90;;;;;;5040735;28;20194;-86
2021/03/24 02:14:09;;;;;;;14.55;9.88;;;6.80;99.90;;;;;;5039880;28;20559;-86
2021/03/24 02:16:40;;;;;;;16.73;11.90;;;6.90;99.90;;;;;;5040558;28;20183;-86
2021/03/24 02:19:16;;;;;;;15.70;10.52;;;6.80;99.90;;;;;;5040556;28;20228;-84
2021/03/24 02:21:43;;;;;;;17.38;11.65;;;6.70;99.90;;;;;;5039263;28;20215;-86
2021/03/24 02:24:19;;;;;;;17.42;11.70;;;6.70;99.90;;;;;;5052801;28;20230;-85
2021/03/24 02:26:51;;;;;;;16.65;11.35;;;6.70;99.90;;;;;;5057403;28;20199;-84
2021/03/24 02:29:20;;;;;;;19.80;11.20;;;6.80;99.90;;;;;;5049930;28;20227;-85
2021/03/24 02:31:47;;;;;;;16.73;10.57;;;6.80;99.90;;;;;;5044240;28;20211;-85
2021/03/24 02:34:24;;;;;;;14.27;10.10;;;6.70;99.90;;;;;;5052889;28;20199;-86
2021/03/24 02:36:52;;;;;;;14.02;10.40;;;6.70;99.90;;;;;;5052867;28;20191;-85
2021/03/24 02:39:23;;;;;;;17.02;10.85;;;6.70;99.90;;;;;;5051976;28;20231;-85
2021/03/24 02:41:52;;;;;;;18.17;12.43;;;6.70;99.90;;;;;;5051075;28;20203;-86
2021/03/24 02:44:19;;;;;;;20.88;11.55;;;6.70;99.90;;;;;;5049778;28;20231;-85
2021/03/24 02:46:46;;;;;;;18.95;11.95;;;6.70;99.90;;;;;;5048964;28;20222;-86
2021/03/24 02:49:14;;;;;;;12.88;10.55;;;6.70;99.90;;;;;;5047070;28;20223;-85
2021/03/24 02:51:41;;;;;;;17.33;10.85;;;6.80;99.90;;;;;;5045392;28;20200;-85
2021/03/24 02:54:11;;;;;;;16.15;11.00;;;6.70;99.90;;;;;;5043165;28;20203;-85
2021/03/24 02:56:37;;;;;;;17.02;11.55;;;6.80;99.90;;;;;;5040912;28;20246;-85
2021/03/24 02:59:04;;;;;;;15.23;11.75;;;7.10;99.90;;;;;;5042428;28;20226;-86
2021/03/24 03:01:37;;;;;;;16.67;11.18;;;6.80;99.90;;;;;;5045501;28;20210;-86
2021/03/24 03:04:08;;;;;;;13.35;10.40;;;6.80;99.90;;;;;;5042149;28;20191;-85
2021/03/24 03:06:34;;;;;;;15.80;10.85;;;6.80;99.90;;;;;;5038668;28;20623;-85
2021/03/24 03:09:04;;;;;;;19.02;13.10;;;7.00;99.90;;;;;;5037669;28;20693;-85
2021/03/24 03:11:37;;;;;;;16.35;11.05;;;6.80;99.90;;;;;;5048125;28;20199;-85
2021/03/24 03:14:08;;;;;;;18.50;11.60;;;6.70;99.90;;;;;;5053674;28;20188;-85
2021/03/24 03:16:40;;;;;;;15.73;10.60;;;6.90;99.90;;;;;;5049840;28;20271;-85
2021/03/24 03:19:13;;;;;;;16.95;10.75;;;7.00;99.90;;;;;;5052182;28;20258;-84
2021/03/24 03:21:43;;;;;;;14.75;11.20;;;6.90;99.90;;;;;;5052933;28;20216;-85
2021/03/24 03:24:11;;;;;;;20.23;11.90;;;6.80;99.90;;;;;;5052809;28;20191;-85
2021/03/24 03:26:39;;;;;;;16.98;13.07;;;6.70;99.90;;;;;;5057857;28;20180;-85
2021/03/24 03:29:09;;;;;;;19.50;11.85;;;6.70;99.90;;;;;;5057998;28;20207;-85
2021/03/24 03:31:38;;;;;;;16.67;12.10;;;6.70;99.90;;;;;;5058014;28;20214;-85
2021/03/24 03:34:07;;;;;;;18.60;12.55;;;6.80;99.90;;;;;;5061867;28;20262;-86
2021/03/24 03:36:36;;;;;;;18.13;12.25;;;6.70;99.90;;;;;;5061892;28;20180;-86
2021/03/24 03:39:05;;;;;;;21.15;12.40;;;6.90;99.90;;;;;;5061263;28;20188;-86
2021/03/24 03:41:32;;;;;;;20.85;11.98;;;6.60;99.90;;;;;;5059846;28;20287;-86
2021/03/24 03:44:00;;;;;;;20.45;11.30;;;6.60;99.90;;;;;;5056112;28;20199;-86
2021/03/24 03:46:29;;;;;;;18.50;12.55;;;6.70;99.90;;;;;;5051714;28;20210;-85
2021/03/24 03:48:56;;;;;;;18.02;11.38;;;6.80;99.90;;;;;;5047213;28;20199;-85
2021/03/24 03:51:30;;;;;;;17.90;12.32;;;6.60;99.90;;;;;;5045395;28;20204;-86
2021/03/24 03:54:06;;;;;;;20.73;11.77;;;6.60;99.90;;;;;;5044805;28;20187;-85
2021/03/24 03:56:36;;;;;;;18.40;12.65;;;6.50;99.90;;;;;;5048053;28;20263;-85
2021/03/24 03:59:11;;;;;;;15.40;10.88;;;6.40;99.90;;;;;;5046229;28;20188;-85
2021/03/24 04:01:40;;;;;;;18.65;12.40;;;6.40;99.90;;;;;;5042831;28;20437;-85
2021/03/24 04:04:12;;;;;;;17.95;13.40;;;6.60;99.90;;;;;;5047938;28;20204;-86
2021/03/24 04:06:43;;;;;;;20.88;12.90;;;6.70;99.90;;;;;;5047086;28;20195;-86
2021/03/24 04:09:10;;;;;;;19.50;12.60;;;6.60;99.90;;;;;;5046153;28;20235;-85
2021/03/24 04:11:43;;;;;;;16.50;12.23;;;6.70;99.90;;;;;;5047597;28;20200;-85
2021/03/24 04:14:11;;;;;;;24.17;18.08;;;6.60;99.90;;;;;;5051503;28;20211;-84
2021/03/24 04:16:38;;;;;;;19.90;13.38;;;6.60;99.90;;;;;;5051240;28;20208;-85
2021/03/24 04:19:07;;;;;;;23.35;13.88;;;6.50;99.90;;;;;;5046700;28;20207;-86
2021/03/24 04:21:45;;;;;;;20.13;13.02;;;6.50;99.90;;;;;;5049924;28;20208;-85
2021/03/24 04:24:16;;;;;;;18.30;12.05;;;6.50;99.90;;;;;;5051485;28;20198;-85
2021/03/24 04:26:46;;;;;;;17.83;13.23;;;6.50;99.90;;;;;;5057156;28;20245;-85
2021/03/24 04:29:17;;;;;;;18.85;12.85;;;6.60;99.90;;;;;;5056116;28;20231;-84
2021/03/24 04:31:49;;;;;;;19.10;12.90;;;6.60;99.90;;;;;;5057942;28;20192;-84
2021/03/24 04:34:18;;;;;;;22.42;14.35;;;6.60;99.90;;;;;;5057198;28;20188;-85
2021/03/24 04:36:49;;;;;;;24.13;13.80;;;6.70;99.90;;;;;;5057709;28;20207;-85
2021/03/24 04:39:23;;;;;;;18.95;13.32;;;6.80;99.90;;;;;;5057007;28;20448;-85
2021/03/24 04:41:50;;;;;;;18.33;14.63;;;6.60;99.90;;;;;;5056609;28;20198;-85
2021/03/24 04:44:21;;;;;;;24.60;14.38;;;6.60;99.90;;;;;;5056152;28;20262;-84
2021/03/24 04:46:51;;;;;;;18.90;13.27;;;6.50;99.90;;;;;;5056486;28;20218;-85
2021/03/24 04:49:21;;;;;;;25.35;14.68;;;6.60;99.90;;;;;;5056675;28;20235;-85
2021/03/24 04:51:48;;;;;;;29.27;17.15;;;6.60;99.90;;;;;;5056961;28;20215;-86
2021/03/24 04:54:19;;;;;;;24.27;13.27;;;6.50;99.90;;;;;;5056120;28;20200;-85
2021/03/24 04:56:49;;;;;;;20.10;13.90;;;6.60;99.90;;;;;;5056604;28;20238;-86
2021/03/24 04:59:20;;;;;;;25.17;15.07;;;6.60;99.90;;;;;;5057118;28;20247;-85
2021/03/24 05:01:51;;;;;;;20.35;13.65;;;6.50;99.90;;;;;;5056279;28;20211;-85
2021/03/24 05:04:25;;;;;;;24.02;15.43;;;6.40;99.90;;;;;;5055610;28;20219;-85
2021/03/24 05:06:56;;;;;;;23.40;14.63;;;6.50;99.90;;;;;;5050459;28;20188;-86
2021/03/24 05:09:22;;;;;;;23.42;16.42;;;6.50;99.90;;;;;;5041485;28;20227;-86
2021/03/24 05:11:59;;;;;;;21.90;15.65;;;6.50;99.90;;;;;;5041371;28;20207;-87
2021/03/24 05:14:30;;;;;;;21.25;15.55;;;6.40;99.90;;;;;;5044583;28;20805;-85
2021/03/24 05:17:10;;;;;;;23.38;16.05;;;6.50;99.90;;;;;;5040408;28;20437;-86
2021/03/24 05:19:37;;;;;;;23.75;16.10;;;6.80;99.90;;;;;;5059451;22;20231;-79
2021/03/24 05:22:12;;;;;;;28.35;17.13;;;6.80;99.90;;;;;;5061903;28;20187;-78
2021/03/24 05:24:40;;;;;;;25.55;14.93;;;6.70;99.90;;;;;;5069840;28;20206;-79
2021/03/24 05:27:14;;;;;;;30.70;16.77;;;6.70;99.90;;;;;;5069324;28;20436;-78
2021/03/24 05:29:45;;;;;;;26.50;16.42;;;6.70;99.90;;;;;;5061047;28;20902;-77
2021/03/24 05:32:17;;;;;;;25.35;16.17;;;6.60;99.90;;;;;;5059073;28;20222;-79
2021/03/24 05:34:47;;;;;;;33.67;16.92;;;6.60;99.90;;;;;;5057166;28;20229;-80
2021/03/24 05:37:14;;;;;;;27.45;16.10;;;6.60;99.90;;;;;;5057384;28;20192;-79
2021/03/24 05:39:42;;;;;;;24.98;15.10;;;6.60;99.90;;;;;;5058172;28;20254;-79
2021/03/24 05:42:33;;;;;;;27.83;18.50;;;6.60;99.90;;;;;;5057823;28;20210;-78
2021/03/24 05:45:12;;;;;;;26.30;16.17;;;6.60;99.90;;;;;;5057726;28;20207;-80
2021/03/24 05:47:58;;;;;;;27.48;16.77;;;6.60;99.90;;;;;;5057038;28;20191;-79
2021/03/24 05:50:59;;;;;;;24.17;16.75;;;6.60;99.90;;;;;;5070521;28;20219;-79
2021/03/24 05:53:41;;;;;;;27.08;17.67;;;6.70;99.90;;;;;;5025134;28;20210;-80
2021/03/24 05:56:11;;;;;;;25.70;16.10;;;6.60;99.90;;;;;;5072873;28;20183;-78
2021/03/24 05:58:48;;;;;;;31.80;19.48;;;6.70;99.90;;;;;;5067879;28;20195;-78
2021/03/24 06:01:17;;;;;;;31.00;17.92;;;6.70;99.90;;;;;;5070184;28;20621;-78
2021/03/24 06:04:01;;;;;;;30.05;18.45;;;6.70;99.90;;;;;;5066537;28;20229;-77
2021/03/24 06:06:55;;;;;;;38.33;22.55;;;6.80;99.90;;;;;;5066357;28;20211;-77
2021/03/24 06:09:38;;;;;;;29.30;19.30;;;6.80;99.90;;;;;;5065552;28;20713;-77
2021/03/24 06:12:35;;;;;;;30.02;18.63;;;6.80;99.90;;;;;;5066047;28;20187;-77
2021/03/24 06:15:30;;;;;;;30.52;21.02;;;7.00;99.90;;;;;;5065637;28;20233;-77
2021/03/24 06:18:09;;;;;;;36.55;19.70;;;7.00;99.90;;;;;;5060370;28;20207;-80
2021/03/24 06:20:42;;;;;;;38.03;22.23;;;7.10;99.90;;;;;;5058878;28;20305;-80
2021/03/24 06:23:26;;;;;;;34.28;20.52;;;7.10;99.90;;;;;;5059013;28;20187;-79
2021/03/24 06:26:00;;;;;;;33.72;20.80;;;7.10;99.90;;;;;;5060726;28;20207;-80
2021/03/24 06:28:35;;;;;;;34.05;21.80;;;7.10;99.90;;;;;;5076114;28;20178;-78
2021/03/24 06:31:36;;;;;;;34.53;21.13;;;7.10;99.90;;;;;;5074313;28;20223;-77
2021/03/24 06:34:18;;;;;;;34.25;22.77;;;6.90;99.90;;;;;;5070862;28;20251;-79
2021/03/24 06:37:13;;;;;;;35.88;22.02;;;7.20;99.90;;;;;;5075608;28;20195;-79
2021/03/24 06:40:02;;;;;;;44.97;26.38;;;7.00;99.90;;;;;;5071516;28;20253;-80
2021/03/24 06:42:37;;;;;;;36.55;24.35;;;7.00;99.90;;;;;;5062985;28;20215;-80
2021/03/24 06:45:23;;;;;;;41.45;25.55;;;7.00;99.90;;;;;;5060949;28;20695;-80
2021/03/24 06:47:55;;;;;;;41.00;26.42;;;7.00;99.90;;;;;;5059610;28;20183;-80
2021/03/24 06:50:53;;;;;;;46.92;26.50;;;7.00;99.90;;;;;;5060170;28;20222;-80
2021/03/24 06:54:01;;;;;;;45.67;28.23;;;7.00;99.90;;;;;;5019028;28;20211;-80
2021/03/24 06:57:03;;;;;;;42.03;26.10;;;7.20;99.90;;;;;;5056360;28;20210;-80
2021/03/24 06:59:56;;;;;;;48.08;30.38;;;7.30;99.90;;;;;;5057878;28;20222;-79
2021/03/24 07:02:54;;;;;;;52.28;29.27;;;7.30;99.90;;;;;;5056912;28;20214;-79
2021/03/24 07:05:40;;;;;;;48.08;29.88;;;7.20;99.90;;;;;;5056897;28;20223;-79
2021/03/24 07:08:23;;;;;;;52.42;31.65;;;7.30;99.90;;;;;;5059691;28;20187;-81
2021/03/24 07:10:58;;;;;;;54.38;31.05;;;7.20;99.90;;;;;;5061282;28;20245;-80
2021/03/24 07:13:54;;;;;;;57.35;32.88;;;7.30;99.90;;;;;;5061694;28;20240;-80
2021/03/24 07:16:29;;;;;;;55.85;33.47;;;7.30;99.90;;;;;;5067089;28;20226;-80
2021/03/24 07:19:14;;;;;;;48.40;31.70;;;7.40;99.90;;;;;;5067347;28;20198;-80
2021/03/24 07:22:00;;;;;;;55.63;34.08;;;7.40;99.90;;;;;;5067187;28;20548;-80
2021/03/24 07:24:49;;;;;;;50.60;32.45;;;7.50;99.90;;;;;;5064917;28;20202;-80
2021/03/24 07:27:41;;;;;;;53.15;33.20;;;7.60;99.90;;;;;;5062485;28;20273;-79
2021/03/24 07:30:21;;;;;;;62.30;34.10;;;7.50;99.90;;;;;;5059535;28;20740;-80
2021/03/24 07:32:53;;;;;;;53.00;33.65;;;7.60;99.90;;;;;;5060089;28;20194;-81
2021/03/24 07:35:34;;;;;;;54.42;34.20;;;7.60;99.90;;;;;;5061463;28;20179;-81
2021/03/24 07:38:23;;;;;;;60.15;35.42;;;7.60;99.90;;;;;;5062381;28;20191;-80
2021/03/24 07:41:23;;;;;;;69.00;34.80;;;7.40;99.90;;;;;;5062057;28;20230;-80
2021/03/24 07:44:18;;;;;;;64.18;37.45;;;7.50;99.90;;;;;;5062293;28;20207;-78
2021/03/24 07:47:18;;;;;;;60.00;38.10;;;7.50;99.90;;;;;;5061602;28;20183;-81
2021/03/24 07:50:01;;;;;;;65.95;37.42;;;7.50;99.90;;;;;;5061811;28;20230;-80
2021/03/24 07:52:44;;;;;;;66.35;38.97;;;7.70;99.90;;;;;;5061728;28;20196;-79
2021/03/24 07:55:17;;;;;;;63.10;38.47;;;7.70;99.90;;;;;;5063634;28;20188;-79
2021/03/24 07:58:00;;;;;;;63.15;37.20;;;7.90;99.90;;;;;;5063029;28;20203;-80
2021/03/24 08:00:34;;;;;;;65.03;36.13;;;8.10;99.90;;;;;;5061659;28;20592;-79
2021/03/24 08:03:07;;;;;;;61.05;35.47;;;8.10;99.90;;;;;;5059761;28;20191;-79
2021/03/24 08:06:00;;;;;;;70.22;39.03;;;8.10;99.90;;;;;;5065822;28;20206;-79
2021/03/24 08:08:45;;;;;;;65.67;39.10;;;8.20;99.90;;;;;;5063609;28;20190;-80
2021/03/24 08:11:20;;;;;;;60.92;33.85;;;8.30;99.90;;;;;;5073849;28;20460;-78
2021/03/24 08:14:07;;;;;;;54.75;35.05;;;8.50;99.90;;;;;;5076072;28;20644;-79
2021/03/24 08:17:00;;;;;;;58.60;32.42;;;8.30;99.90;;;;;;5073323;28;20198;-79
2021/03/24 08:19:40;;;;;;;52.17;34.72;;;8.60;99.90;;;;;;5061447;28;20230;-81
2021/03/24 08:22:20;;;;;;;60.13;37.87;;;8.50;99.90;;;;;;5071933;28;20191;-76
2021/03/24 08:24:56;;;;;;;64.95;35.88;;;8.50;99.90;;;;;;5068515;28;20444;-78
2021/03/24 08:27:29;;;;;;;59.43;33.63;;;8.60;99.90;;;;;;5068868;28;20191;-79
2021/03/24 08:30:12;;;;;;;56.92;35.25;;;8.70;99.90;;;;;;5068293;28;20436;-79
2021/03/24 08:33:25;;;;;;;60.60;36.67;;;8.60;99.90;;;;;;5065056;28;20194;-77
2021/03/24 08:36:08;;;;;;;59.72;34.20;;;8.60;99.90;;;;;;5064664;28;20385;-77
2021/03/24 08:38:59;;;;;;;56.85;35.63;;;8.60;99.90;;;;;;5064628;28;20279;-78
2021/03/24 08:41:50;;;;;;;56.30;34.23;;;8.60;99.90;;;;;;5071720;28;20223;-80
2021/03/24 08:44:21;;;;;;;56.50;32.57;;;8.80;99.90;;;;;;5060570;28;20429;-80
2021/03/24 08:46:55;;;;;;;61.03;36.53;;;8.90;99.90;;;;;;5059816;28;20517;-81
2021/03/24 08:49:33;;;;;;;59.33;36.03;;;8.80;99.90;;;;;;5058513;28;20444;-80
2021/03/24 08:52:08;;;;;;;60.38;36.60;;;8.90;99.90;;;;;;5058459;28;20434;-78
2021/03/24 08:54:52;;;;;;;58.95;33.42;;;8.70;99.90;;;;;;5061408;28;20236;-78
2021/03/24 08:57:49;;;;;;;54.60;35.63;;;8.90;99.90;;;;;;5058260;28;20187;-79
2021/03/24 09:00:27;;;;;;;57.50;32.73;;;9.30;99.90;;;;;;5058361;28;20465;-78
2021/03/24 09:03:11;;;;;;;57.23;33.60;;;9.20;99.90;;;;;;5063465;28;20408;-80
2021/03/24 09:05:40;;;;;;;51.00;33.37;;;9.30;99.90;;;;;;5064398;28;20512;-78
2021/03/24 09:08:23;;;;;;;49.83;31.23;;;9.10;99.90;;;;;;5058304;28;20446;-79
2021/03/24 09:11:01;;;;;;;57.47;34.33;;;9.10;99.90;;;;;;5059237;28;20985;-79
2021/03/24 09:13:33;;;;;;;60.13;34.70;;;9.20;99.90;;;;;;5059623;28;20845;-79
2021/03/24 09:16:21;;;;;;;55.77;33.10;;;9.40;99.90;;;;;;5058045;28;20473;-78
2021/03/24 09:18:50;;;;;;;55.53;32.67;;;9.40;99.90;;;;;;5059505;28;20412;-81
2021/03/24 09:21:20;;;;;;;49.77;30.90;;;9.40;99.90;;;;;;5058967;28;20477;-77
2021/03/24 09:24:23;;;;;;;54.20;30.90;;;9.50;99.90;;;;;;5064275;28;20428;-77
2021/03/24 09:27:23;;;;;;;54.70;31.70;;;9.60;99.90;;;;;;5073817;28;20436;-76
2021/03/24 09:30:10;;;;;;;54.80;32.80;;;9.40;99.90;;;;;;5064436;28;20484;-78
2021/03/24 09:32:41;;;;;;;53.03;33.20;;;9.70;99.90;;;;;;5063942;28;20433;-81
2021/03/24 09:35:23;;;;;;;58.27;32.47;;;9.60;99.90;;;;;;5062958;28;20414;-79
2021/03/24 09:37:57;;;;;;;54.87;33.27;;;9.60;99.90;;;;;;5063260;28;20777;-80
2021/03/24 09:40:31;;;;;;;55.43;33.30;;;9.60;99.90;;;;;;5060884;28;20461;-80
2021/03/24 09:43:01;;;;;;;56.30;34.13;;;9.90;99.90;;;;;;5060600;28;20935;-81
2021/03/24 09:45:32;;;;;;;55.77;32.50;;;10.10;99.90;;;;;;5061559;28;20477;-81
2021/03/24 09:48:06;;;;;;;58.47;32.70;;;10.10;99.90;;;;;;5058266;28;20487;-80
2021/03/24 09:50:48;;;;;;;51.13;32.30;;;9.90;99.90;;;;;;5058833;28;20440;-79
2021/03/24 09:53:19;;;;;;;62.60;33.63;;;9.80;99.90;;;;;;5059833;28;20433;-79
2021/03/24 09:55:47;;;;;;;58.50;32.80;;;10.00;99.90;;;;;;5062735;28;20430;-81
2021/03/24 09:58:40;;;;;;;58.33;33.20;;;10.00;99.90;;;;;;5061993;28;20446;-79
2021/03/24 10:01:17;;;;;;;56.63;32.97;;;10.10;99.90;;;;;;5065195;28;20565;-77
2021/03/24 10:03:51;;;;;;;50.93;32.37;;;10.20;99.90;;;;;;5075930;28;20426;-78
2021/03/24 10:06:33;;;;;;;55.30;34.10;;;10.00;99.90;;;;;;5072662;28;20957;-78
2021/03/24 10:09:17;;;;;;;54.33;31.40;;;10.00;99.90;;;;;;5074497;28;20422;-79
2021/03/24 10:11:49;;;;;;;54.90;32.30;;;10.00;99.90;;;;;;5076170;28;20389;-77
2021/03/24 10:14:26;;;;;;;54.27;31.70;;;9.90;99.90;;;;;;5072471;28;20401;-79
2021/03/24 10:17:00;;;;;;;57.70;33.37;;;9.90;99.90;;;;;;5068377;28;20496;-78
2021/03/24 10:19:35;;;;;;;58.30;32.23;;;10.10;99.90;;;;;;5069418;28;20453;-78
2021/03/24 10:22:09;;;;;;;55.80;34.03;;;10.30;99.90;;;;;;5074254;28;20433;-78
2021/03/24 10:24:43;;;;;;;56.23;31.90;;;9.80;99.90;;;;;;5074902;28;20445;-78
2021/03/24 10:27:13;;;;;;;57.23;34.17;;;9.90;99.90;;;;;;5066973;28;20438;-80
2021/03/24 10:29:43;;;;;;;48.93;30.03;;;10.10;99.90;;;;;;5068485;28;20468;-77
2021/03/24 10:32:22;;;;;;;53.47;31.37;;;10.30;99.90;;;;;;5066069;28;20436;-79
2021/03/24 10:34:53;;;;;;;57.33;34.50;;;10.20;99.90;;;;;;5072613;28;20414;-77
2021/03/24 10:37:27;;;;;;;51.97;32.17;;;10.20;99.90;;;;;;5069701;28;20432;-78
2021/03/24 10:39:58;;;;;;;59.30;34.13;;;10.40;99.90;;;;;;5069133;28;20465;-80
2021/03/24 10:42:29;;;;;;;56.13;33.57;;;10.30;99.90;;;;;;5067542;28;20430;-77
2021/03/24 10:45:03;;;;;;;55.87;33.10;;;10.50;99.90;;;;;;5069558;28;20434;-80
2021/03/24 10:47:34;;;;;;;58.93;33.93;;;10.50;99.90;;;;;;5068551;28;20492;-79
2021/03/24 10:50:10;;;;;;;51.63;34.43;;;10.20;99.90;;;;;;5064397;28;20440;-79
2021/03/24 10:52:39;;;;;;;58.17;34.33;;;10.10;99.90;;;;;;5065927;28;20430;-81
2021/03/24 10:55:14;;;;;;;59.57;32.90;;;10.10;99.90;;;;;;5064171;28;20437;-80
2021/03/24 10:58:05;;;;;;;52.73;32.83;;;9.90;99.90;;;;;;5073749;28;20396;-77
2021/03/24 11:00:36;;;;;;;54.97;33.20;;;10.00;99.90;;;;;;5074865;28;20470;-77
2021/03/24 11:03:15;;;;;;;54.30;32.93;;;10.20;99.90;;;;;;5070114;28;20430;-77
2021/03/24 11:05:46;;;;;;;46.80;30.70;;;10.20;99.90;;;;;;5072674;28;20469;-80
2021/03/24 11:08:25;;;;;;;48.73;30.20;;;10.10;99.90;;;;;;5064687;28;20426;-79
2021/03/24 11:10:58;;;;;;;58.00;32.37;;;10.40;99.90;;;;;;5067296;28;20465;-78
2021/03/24 11:13:31;;;;;;;43.83;27.87;;;10.50;99.90;;;;;;5068226;28;20393;-79
2021/03/24 11:16:19;;;;;;;48.50;27.53;;;10.60;99.90;;;;;;5070533;28;20405;-78
2021/03/24 11:18:48;;;;;;;50.43;31.27;;;10.60;99.90;;;;;;5075848;28;20414;-78
2021/03/24 11:21:31;;;;;;;46.97;28.57;;;10.50;99.90;;;;;;5137061;22;20912;-86
2021/03/24 11:24:14;;;;;;;48.40;27.90;;;11.10;99.90;;;;;;5062024;28;20422;-86
2021/03/24 11:27:20;;;;;;;42.07;26.60;;;13.70;99.90;;;;;;5060939;28;20471;-86
2021/03/24 11:29:52;;;;;;;39.93;26.97;;;11.10;99.90;;;;;;5000952;28;20436;-86
2021/03/24 11:32:27;;;;;;;38.30;24.00;;;11.20;99.90;;;;;;4999457;28;20955;-86
2021/03/24 11:34:57;;;;;;;42.50;24.67;;;11.00;99.90;;;;;;5036287;28;20422;-86
2021/03/24 11:37:39;;;;;;;41.13;25.63;;;10.90;99.90;;;;;;5061190;28;20846;-86
2021/03/24 11:40:17;;;;;;;41.50;26.10;;;11.30;99.90;;;;;;5069861;28;20471;-85
2021/03/24 11:42:53;;;;;;;37.73;24.13;;;11.40;99.90;;;;;;5071645;28;20430;-85
2021/03/24 11:45:22;;;;;;;42.20;27.10;;;11.40;99.90;;;;;;5070837;28;20418;-86
2021/03/24 11:48:09;;;;;;;43.70;25.90;;;11.30;99.90;;;;;;5072237;28;20457;-86
2021/03/24 11:50:43;;;;;;;38.77;25.43;;;11.30;99.90;;;;;;5051797;28;20568;-86
2021/03/24 11:53:16;;;;;;;45.60;26.17;;;11.00;99.90;;;;;;5068396;28;20459;-86
2021/03/24 11:55:52;;;;;;;41.27;24.87;;;10.90;99.90;;;;;;5064551;28;20469;-86
2021/03/24 11:58:36;;;;;;;42.53;25.17;;;10.70;99.90;;;;;;5064876;28;20408;-86
2021/03/24 12:01:14;;;;;;;48.77;27.40;;;10.90;99.90;;;;;;5065644;28;20479;-86
2021/03/24 12:04:05;;;;;;;40.40;25.67;;;10.30;99.90;;;;;;5063872;28;20444;-86
2021/03/24 12:06:51;;;;;;;40.27;25.70;;;11.10;99.90;;;;;;5063582;28;20529;-86
2021/03/24 12:09:21;;;;;;;40.90;28.47;;;11.10;99.90;;;;;;5064417;28;20440;-88
2021/03/24 12:11:47;;;;;;;43.83;27.90;;;11.00;99.90;;;;;;5067216;28;20436;-86
2021/03/24 12:14:17;;;;;;;46.50;27.90;;;10.90;99.90;;;;;;5069741;28;20445;-87
2021/03/24 12:16:50;;;;;;;41.33;27.50;;;10.00;99.90;;;;;;5071078;28;20477;-87
2021/03/24 12:19:33;;;;;;;43.90;27.60;;;9.80;99.90;;;;;;5071475;28;20401;-86
2021/03/24 12:22:04;;;;;;;46.00;28.27;;;10.90;99.90;;;;;;5073614;28;20484;-86
2021/03/24 12:24:33;;;;;;;43.13;26.63;;;11.00;99.90;;;;;;5078383;28;20425;-86
2021/03/24 12:27:14;;;;;;;39.40;26.57;;;11.10;99.90;;;;;;5079167;28;20442;-86
2021/03/24 12:29:43;;;;;;;37.57;24.90;;;11.40;99.90;;;;;;5079796;28;20417;-86
2021/03/24 12:32:22;;;;;;;46.43;30.60;;;13.00;99.90;;;;;;5080187;28;20421;-86
2021/03/24 12:34:51;;;;;;;50.97;28.73;;;11.50;99.90;;;;;;5079795;28;20485;-86
2021/03/24 12:37:33;;;;;;;40.93;26.80;;;11.60;99.90;;;;;;5079167;28;20468;-86
2021/03/24 12:40:14;;;;;;;40.97;27.00;;;12.10;99.90;;;;;;5079740;28;20474;-86
2021/03/24 12:42:41;;;;;;;41.30;27.30;;;11.80;99.90;;;;;;5080236;28;20430;-86
2021/03/24 12:45:37;;;;;;;39.80;25.10;;;12.10;99.90;;;;;;5080352;28;20430;-86
2021/03/24 12:48:34;;;;;;;40.57;26.50;;;11.80;99.90;;;;;;5080261;28;20397;-87
2021/03/24 12:51:08;;;;;;;39.17;23.87;;;11.80;99.90;;;;;;5079204;28;20466;-86
2021/03/24 12:53:40;;;;;;;38.80;25.60;;;12.10;99.90;;;;;;5078895;28;20442;-85
2021/03/24 12:56:41;;;;;;;39.23;24.93;;;11.70;99.90;;;;;;5076730;28;20498;-87
2021/03/24 12:59:28;;;;;;;34.90;24.37;;;10.80;99.90;;;;;;5073920;28;20472;-86
2021/03/24 13:02:18;;;;;;;39.80;26.17;;;11.60;99.90;;;;;;5075690;28;20536;-86
2021/03/24 13:04:58;;;;;;;33.37;24.37;;;11.70;99.90;;;;;;5072541;28;20434;-86
2021/03/24 13:07:53;;;;;;;38.80;26.20;;;12.60;99.90;;;;;;5067196;28;20516;-86
2021/03/24 13:10:49;;;;;;;37.10;25.23;;;10.20;99.90;;;;;;5065530;28;20489;-86
2021/03/24 13:13:42;;;;;;;36.30;24.93;;;11.20;99.90;;;;;;5070241;28;20427;-86
2021/03/24 13:16:30;;;;;;;33.20;23.37;;;13.00;99.90;;;;;;5079380;28;20477;-86
2021/03/24 13:19:05;;;;;;;43.33;27.03;;;11.80;99.90;;;;;;5079992;28;20422;-87